sensor_id;sensor_type;location;lat;lon;timestamp;P1;durP1;ratioP1;P2;durP2;ratioP2
10007;SDS011;5043;41.766;26.204;2023-05-19T00:01:06;5.68;;;2.83;;
10007;SDS011;5043;41.766;26.204;2023-05-19T00:03:34;3.13;;;2.78;;
10007;SDS011;5043;41.766;26.204;2023-05-19T00:06:05;4.40;;;2.88;;
10007;SDS011;5043;41.766;26.204;2023-05-19T00:08:34;6.97;;;3.20;;
10007;SDS011;5043;41.766;26.204;2023-05-19T00:11:03;3.90;;;2.63;;
10007;SDS011;5043;41.766;26.204;2023-05-19T00:13:30;5.43;;;2.95;;
10007;SDS011;5043;41.766;26.204;2023-05-19T00:15:56;6.85;;;2.67;;
10007;SDS011;5043;41.766;26.204;2023-05-19T00:18:21;6.15;;;2.60;;
10007;SDS011;5043;41.766;26.204;2023-05-19T00:20:47;3.20;;;2.90;;
10007;SDS011;5043;41.766;26.204;2023-05-19T00:23:13;3.95;;;2.67;;
10007;SDS011;5043;41.766;26.204;2023-05-19T00:25:38;5.80;;;2.33;;
10007;SDS011;5043;41.766;26.204;2023-05-19T00:28:03;8.88;;;2.72;;
10007;SDS011;5043;41.766;26.204;2023-05-19T00:30:29;3.03;;;2.80;;
10007;SDS011;5043;41.766;26.204;2023-05-19T00:32:55;2.80;;;2.60;;
10007;SDS011;5043;41.766;26.204;2023-05-19T00:35:20;2.80;;;2.40;;
10007;SDS011;5043;41.766;26.204;2023-05-19T00:37:47;6.72;;;3.00;;
10007;SDS011;5043;41.766;26.204;2023-05-19T00:40:13;4.43;;;2.78;;
10007;SDS011;5043;41.766;26.204;2023-05-19T00:42:38;6.45;;;2.47;;
10007;SDS011;5043;41.766;26.204;2023-05-19T00:45:05;3.63;;;2.85;;
10007;SDS011;5043;41.766;26.204;2023-05-19T00:47:31;3.05;;;2.25;;
10007;SDS011;5043;41.766;26.204;2023-05-19T00:49:57;6.75;;;2.80;;
10007;SDS011;5043;41.766;26.204;2023-05-19T00:52:23;3.22;;;2.33;;
10007;SDS011;5043;41.766;26.204;2023-05-19T00:54:48;3.88;;;2.55;;
10007;SDS011;5043;41.766;26.204;2023-05-19T00:57:16;3.47;;;2.40;;
10007;SDS011;5043;41.766;26.204;2023-05-19T00:59:41;7.40;;;2.17;;
10007;SDS011;5043;41.766;26.204;2023-05-19T01:02:07;2.33;;;2.13;;
10007;SDS011;5043;41.766;26.204;2023-05-19T01:04:32;4.03;;;2.33;;
10007;SDS011;5043;41.766;26.204;2023-05-19T01:07:00;3.33;;;2.28;;
10007;SDS011;5043;41.766;26.204;2023-05-19T01:09:25;4.25;;;2.10;;
10007;SDS011;5043;41.766;26.204;2023-05-19T01:11:51;3.05;;;2.30;;
10007;SDS011;5043;41.766;26.204;2023-05-19T01:14:17;3.60;;;2.30;;
10007;SDS011;5043;41.766;26.204;2023-05-19T01:19:35;4.82;;;2.38;;
10007;SDS011;5043;41.766;26.204;2023-05-19T01:33:02;2.40;;;2.20;;
10007;SDS011;5043;41.766;26.204;2023-05-19T01:35:31;2.45;;;2.10;;
10007;SDS011;5043;41.766;26.204;2023-05-19T01:38:00;11.90;;;2.72;;
10007;SDS011;5043;41.766;26.204;2023-05-19T01:40:28;5.25;;;2.22;;
10007;SDS011;5043;41.766;26.204;2023-05-19T01:42:57;5.28;;;2.08;;
10007;SDS011;5043;41.766;26.204;2023-05-19T01:45:24;6.00;;;2.38;;
10007;SDS011;5043;41.766;26.204;2023-05-19T01:47:52;9.80;;;3.10;;
10007;SDS011;5043;41.766;26.204;2023-05-19T01:50:19;5.65;;;2.65;;
10007;SDS011;5043;41.766;26.204;2023-05-19T01:52:45;3.38;;;1.90;;
10007;SDS011;5043;41.766;26.204;2023-05-19T01:55:10;2.85;;;2.53;;
10007;SDS011;5043;41.766;26.204;2023-05-19T01:57:45;2.63;;;2.10;;
10007;SDS011;5043;41.766;26.204;2023-05-19T02:08:12;2.30;;;2.10;;
10007;SDS011;5043;41.766;26.204;2023-05-19T02:10:45;6.45;;;2.38;;
10007;SDS011;5043;41.766;26.204;2023-05-19T02:13:19;6.10;;;3.10;;
10007;SDS011;5043;41.766;26.204;2023-05-19T02:15:48;2.88;;;2.25;;
10007;SDS011;5043;41.766;26.204;2023-05-19T02:18:16;2.10;;;1.95;;
10007;SDS011;5043;41.766;26.204;2023-05-19T02:20:44;3.92;;;2.72;;
10007;SDS011;5043;41.766;26.204;2023-05-19T02:23:09;2.72;;;2.53;;
10007;SDS011;5043;41.766;26.204;2023-05-19T02:25:35;5.97;;;2.40;;
10007;SDS011;5043;41.766;26.204;2023-05-19T02:28:00;2.22;;;2.03;;
10007;SDS011;5043;41.766;26.204;2023-05-19T02:30:26;3.60;;;2.90;;
10007;SDS011;5043;41.766;26.204;2023-05-19T02:32:51;3.92;;;2.60;;
10007;SDS011;5043;41.766;26.204;2023-05-19T02:35:18;4.13;;;2.30;;
10007;SDS011;5043;41.766;26.204;2023-05-19T02:37:44;3.33;;;2.63;;
10007;SDS011;5043;41.766;26.204;2023-05-19T02:40:11;2.67;;;2.33;;
10007;SDS011;5043;41.766;26.204;2023-05-19T02:42:36;3.88;;;2.75;;
10007;SDS011;5043;41.766;26.204;2023-05-19T02:45:03;3.25;;;2.30;;
10007;SDS011;5043;41.766;26.204;2023-05-19T02:47:29;4.38;;;1.90;;
10007;SDS011;5043;41.766;26.204;2023-05-19T02:49:54;3.63;;;2.63;;
10007;SDS011;5043;41.766;26.204;2023-05-19T02:52:20;9.48;;;2.78;;
10007;SDS011;5043;41.766;26.204;2023-05-19T02:54:45;5.05;;;2.53;;
10007;SDS011;5043;41.766;26.204;2023-05-19T02:57:10;5.70;;;2.58;;
10007;SDS011;5043;41.766;26.204;2023-05-19T02:59:36;3.50;;;2.30;;
10007;SDS011;5043;41.766;26.204;2023-05-19T03:02:01;6.22;;;2.17;;
10007;SDS011;5043;41.766;26.204;2023-05-19T03:04:28;2.58;;;2.22;;
10007;SDS011;5043;41.766;26.204;2023-05-19T03:06:54;3.08;;;2.40;;
10007;SDS011;5043;41.766;26.204;2023-05-19T03:09:19;3.25;;;2.67;;
10007;SDS011;5043;41.766;26.204;2023-05-19T03:11:45;9.23;;;2.90;;
10007;SDS011;5043;41.766;26.204;2023-05-19T03:14:10;3.95;;;2.65;;
10007;SDS011;5043;41.766;26.204;2023-05-19T03:16:38;3.45;;;2.60;;
10007;SDS011;5043;41.766;26.204;2023-05-19T03:19:05;3.55;;;2.30;;
10007;SDS011;5043;41.766;26.204;2023-05-19T03:21:30;9.48;;;3.25;;
10007;SDS011;5043;41.766;26.204;2023-05-19T03:23:56;4.35;;;2.70;;
10007;SDS011;5043;41.766;26.204;2023-05-19T03:26:21;10.70;;;2.50;;
10007;SDS011;5043;41.766;26.204;2023-05-19T03:28:47;2.65;;;2.40;;
10007;SDS011;5043;41.766;26.204;2023-05-19T03:31:12;5.00;;;3.20;;
10007;SDS011;5043;41.766;26.204;2023-05-19T03:33:37;2.70;;;2.45;;
10007;SDS011;5043;41.766;26.204;2023-05-19T03:36:03;8.02;;;3.20;;
10007;SDS011;5043;41.766;26.204;2023-05-19T03:38:29;3.00;;;2.47;;
10007;SDS011;5043;41.766;26.204;2023-05-19T03:40:54;6.05;;;2.80;;
10007;SDS011;5043;41.766;26.204;2023-05-19T03:43:20;3.55;;;2.95;;
10007;SDS011;5043;41.766;26.204;2023-05-19T03:45:45;4.65;;;3.08;;
10007;SDS011;5043;41.766;26.204;2023-05-19T03:48:11;3.83;;;2.90;;
10007;SDS011;5043;41.766;26.204;2023-05-19T03:50:36;6.45;;;3.35;;
10007;SDS011;5043;41.766;26.204;2023-05-19T03:53:02;3.03;;;2.60;;
10007;SDS011;5043;41.766;26.204;2023-05-19T03:55:27;4.78;;;2.85;;
10007;SDS011;5043;41.766;26.204;2023-05-19T03:57:56;5.32;;;2.88;;
10007;SDS011;5043;41.766;26.204;2023-05-19T04:00:21;4.63;;;3.00;;
10007;SDS011;5043;41.766;26.204;2023-05-19T04:02:47;7.75;;;3.10;;
10007;SDS011;5043;41.766;26.204;2023-05-19T04:05:13;6.80;;;2.70;;
10007;SDS011;5043;41.766;26.204;2023-05-19T04:07:39;5.38;;;2.88;;
10007;SDS011;5043;41.766;26.204;2023-05-19T04:10:05;4.68;;;2.72;;
10007;SDS011;5043;41.766;26.204;2023-05-19T04:12:31;4.82;;;2.60;;
10007;SDS011;5043;41.766;26.204;2023-05-19T04:14:57;4.75;;;2.30;;
10007;SDS011;5043;41.766;26.204;2023-05-19T04:17:23;5.13;;;2.63;;
10007;SDS011;5043;41.766;26.204;2023-05-19T04:19:50;4.28;;;2.70;;
10007;SDS011;5043;41.766;26.204;2023-05-19T04:22:19;6.75;;;3.05;;
10007;SDS011;5043;41.766;26.204;2023-05-19T04:24:44;4.75;;;3.10;;
10007;SDS011;5043;41.766;26.204;2023-05-19T04:27:10;6.35;;;2.83;;
10007;SDS011;5043;41.766;26.204;2023-05-19T04:29:37;3.92;;;2.80;;
10007;SDS011;5043;41.766;26.204;2023-05-19T04:32:03;4.45;;;2.70;;
10007;SDS011;5043;41.766;26.204;2023-05-19T04:34:32;5.15;;;2.60;;
10007;SDS011;5043;41.766;26.204;2023-05-19T04:36:59;5.80;;;2.88;;
10007;SDS011;5043;41.766;26.204;2023-05-19T04:39:24;5.85;;;2.95;;
10007;SDS011;5043;41.766;26.204;2023-05-19T04:41:50;3.72;;;2.75;;
10007;SDS011;5043;41.766;26.204;2023-05-19T04:44:15;6.93;;;2.85;;
10007;SDS011;5043;41.766;26.204;2023-05-19T04:46:42;3.03;;;2.72;;
10007;SDS011;5043;41.766;26.204;2023-05-19T04:49:09;5.00;;;3.03;;
10007;SDS011;5043;41.766;26.204;2023-05-19T04:51:36;5.45;;;2.97;;
10007;SDS011;5043;41.766;26.204;2023-05-19T04:54:05;3.17;;;2.88;;
10007;SDS011;5043;41.766;26.204;2023-05-19T04:56:31;6.30;;;3.10;;
10007;SDS011;5043;41.766;26.204;2023-05-19T04:58:57;5.15;;;3.55;;
10007;SDS011;5043;41.766;26.204;2023-05-19T05:01:22;8.45;;;2.88;;
10007;SDS011;5043;41.766;26.204;2023-05-19T05:03:50;8.13;;;3.22;;
10007;SDS011;5043;41.766;26.204;2023-05-19T05:06:19;5.82;;;2.90;;
10007;SDS011;5043;41.766;26.204;2023-05-19T05:08:45;5.70;;;3.08;;
10007;SDS011;5043;41.766;26.204;2023-05-19T05:11:10;4.97;;;3.20;;
10007;SDS011;5043;41.766;26.204;2023-05-19T05:13:36;4.00;;;2.97;;
10007;SDS011;5043;41.766;26.204;2023-05-19T05:16:02;8.50;;;3.50;;
10007;SDS011;5043;41.766;26.204;2023-05-19T05:18:31;5.85;;;3.08;;
10007;SDS011;5043;41.766;26.204;2023-05-19T05:20:57;8.30;;;2.90;;
10007;SDS011;5043;41.766;26.204;2023-05-19T05:23:23;5.43;;;3.00;;
10007;SDS011;5043;41.766;26.204;2023-05-19T05:25:49;5.38;;;2.78;;
10007;SDS011;5043;41.766;26.204;2023-05-19T05:28:15;4.45;;;2.70;;
10007;SDS011;5043;41.766;26.204;2023-05-19T05:30:40;7.63;;;3.47;;
10007;SDS011;5043;41.766;26.204;2023-05-19T05:33:06;3.10;;;2.90;;
10007;SDS011;5043;41.766;26.204;2023-05-19T05:35:31;5.07;;;3.00;;
10007;SDS011;5043;41.766;26.204;2023-05-19T05:37:57;9.85;;;3.35;;
10007;SDS011;5043;41.766;26.204;2023-05-19T05:40:23;11.88;;;3.53;;
10007;SDS011;5043;41.766;26.204;2023-05-19T05:42:48;4.75;;;3.50;;
10007;SDS011;5043;41.766;26.204;2023-05-19T05:45:14;7.80;;;3.78;;
10007;SDS011;5043;41.766;26.204;2023-05-19T05:47:39;3.97;;;3.40;;
10007;SDS011;5043;41.766;26.204;2023-05-19T05:50:06;7.88;;;3.72;;
10007;SDS011;5043;41.766;26.204;2023-05-19T05:52:33;5.10;;;3.40;;
10007;SDS011;5043;41.766;26.204;2023-05-19T05:55:01;6.57;;;3.63;;
10007;SDS011;5043;41.766;26.204;2023-05-19T05:57:29;4.68;;;3.88;;
10007;SDS011;5043;41.766;26.204;2023-05-19T05:59:55;8.13;;;4.10;;
10007;SDS011;5043;41.766;26.204;2023-05-19T06:02:20;5.63;;;3.72;;
10007;SDS011;5043;41.766;26.204;2023-05-19T06:04:46;9.15;;;4.50;;
10007;SDS011;5043;41.766;26.204;2023-05-19T06:07:11;7.18;;;3.92;;
10007;SDS011;5043;41.766;26.204;2023-05-19T06:09:37;8.45;;;4.15;;
10007;SDS011;5043;41.766;26.204;2023-05-19T06:12:02;6.88;;;4.15;;
10007;SDS011;5043;41.766;26.204;2023-05-19T06:14:28;7.55;;;4.93;;
10007;SDS011;5043;41.766;26.204;2023-05-19T06:16:53;4.80;;;4.00;;
10007;SDS011;5043;41.766;26.204;2023-05-19T06:19:19;7.38;;;3.97;;
10007;SDS011;5043;41.766;26.204;2023-05-19T06:21:45;4.25;;;3.90;;
10007;SDS011;5043;41.766;26.204;2023-05-19T06:24:10;5.97;;;4.18;;
10007;SDS011;5043;41.766;26.204;2023-05-19T06:26:36;8.00;;;4.38;;
10007;SDS011;5043;41.766;26.204;2023-05-19T06:29:01;6.20;;;4.40;;
10007;SDS011;5043;41.766;26.204;2023-05-19T06:31:27;6.47;;;4.55;;
10007;SDS011;5043;41.766;26.204;2023-05-19T06:33:53;9.10;;;4.30;;
10007;SDS011;5043;41.766;26.204;2023-05-19T06:36:18;9.45;;;4.32;;
10007;SDS011;5043;41.766;26.204;2023-05-19T06:38:44;9.88;;;4.35;;
10007;SDS011;5043;41.766;26.204;2023-05-19T06:41:09;8.25;;;4.03;;
10007;SDS011;5043;41.766;26.204;2023-05-19T06:43:35;9.20;;;4.45;;
10007;SDS011;5043;41.766;26.204;2023-05-19T06:46:01;5.32;;;4.15;;
10007;SDS011;5043;41.766;26.204;2023-05-19T06:48:26;4.78;;;4.32;;
10007;SDS011;5043;41.766;26.204;2023-05-19T06:50:52;11.07;;;4.90;;
10007;SDS011;5043;41.766;26.204;2023-05-19T06:53:18;7.82;;;4.50;;
10007;SDS011;5043;41.766;26.204;2023-05-19T06:55:45;8.52;;;5.00;;
10007;SDS011;5043;41.766;26.204;2023-05-19T06:58:10;5.88;;;4.53;;
10007;SDS011;5043;41.766;26.204;2023-05-19T07:00:36;7.93;;;4.70;;
10007;SDS011;5043;41.766;26.204;2023-05-19T07:03:02;10.82;;;5.13;;
10007;SDS011;5043;41.766;26.204;2023-05-19T07:05:28;8.45;;;4.32;;
10007;SDS011;5043;41.766;26.204;2023-05-19T07:07:53;8.65;;;4.43;;
10007;SDS011;5043;41.766;26.204;2023-05-19T07:10:18;7.38;;;4.47;;
10007;SDS011;5043;41.766;26.204;2023-05-19T07:12:45;4.22;;;3.83;;
10007;SDS011;5043;41.766;26.204;2023-05-19T07:15:11;9.55;;;4.78;;
10007;SDS011;5043;41.766;26.204;2023-05-19T07:17:36;7.15;;;4.97;;
10007;SDS011;5043;41.766;26.204;2023-05-19T07:20:02;7.47;;;4.50;;
10007;SDS011;5043;41.766;26.204;2023-05-19T07:22:30;9.18;;;4.72;;
10007;SDS011;5043;41.766;26.204;2023-05-19T07:24:59;10.85;;;4.13;;
10007;SDS011;5043;41.766;26.204;2023-05-19T07:27:24;7.40;;;5.30;;
10007;SDS011;5043;41.766;26.204;2023-05-19T07:29:50;5.30;;;4.57;;
10007;SDS011;5043;41.766;26.204;2023-05-19T07:32:15;13.35;;;5.78;;
10007;SDS011;5043;41.766;26.204;2023-05-19T07:34:41;8.32;;;5.45;;
10007;SDS011;5043;41.766;26.204;2023-05-19T07:37:06;6.13;;;4.95;;
10007;SDS011;5043;41.766;26.204;2023-05-19T07:39:32;9.38;;;5.63;;
10007;SDS011;5043;41.766;26.204;2023-05-19T07:41:59;6.85;;;5.53;;
10007;SDS011;5043;41.766;26.204;2023-05-19T07:44:24;9.93;;;5.32;;
10007;SDS011;5043;41.766;26.204;2023-05-19T07:46:51;7.10;;;5.05;;
10007;SDS011;5043;41.766;26.204;2023-05-19T07:49:17;10.40;;;5.90;;
10007;SDS011;5043;41.766;26.204;2023-05-19T07:51:43;7.00;;;4.80;;
10007;SDS011;5043;41.766;26.204;2023-05-19T07:54:09;9.18;;;5.50;;
10007;SDS011;5043;41.766;26.204;2023-05-19T07:56:35;11.55;;;5.80;;
10007;SDS011;5043;41.766;26.204;2023-05-19T07:59:00;14.05;;;5.03;;
10007;SDS011;5043;41.766;26.204;2023-05-19T08:01:26;8.18;;;5.65;;
10007;SDS011;5043;41.766;26.204;2023-05-19T08:03:52;9.23;;;5.10;;
10007;SDS011;5043;41.766;26.204;2023-05-19T08:06:17;6.68;;;5.53;;
10007;SDS011;5043;41.766;26.204;2023-05-19T08:08:43;6.45;;;5.43;;
10007;SDS011;5043;41.766;26.204;2023-05-19T08:11:08;9.07;;;5.75;;
10007;SDS011;5043;41.766;26.204;2023-05-19T08:13:34;10.35;;;5.82;;
10007;SDS011;5043;41.766;26.204;2023-05-19T08:15:59;5.82;;;5.20;;
10007;SDS011;5043;41.766;26.204;2023-05-19T08:18:25;6.70;;;5.70;;
10007;SDS011;5043;41.766;26.204;2023-05-19T08:20:50;10.25;;;5.72;;
10007;SDS011;5043;41.766;26.204;2023-05-19T08:23:16;8.93;;;5.50;;
10007;SDS011;5043;41.766;26.204;2023-05-19T08:25:42;7.30;;;6.53;;
10007;SDS011;5043;41.766;26.204;2023-05-19T08:28:07;7.90;;;6.00;;
10007;SDS011;5043;41.766;26.204;2023-05-19T08:30:33;7.10;;;6.20;;
10007;SDS011;5043;41.766;26.204;2023-05-19T08:32:58;9.65;;;6.53;;
10007;SDS011;5043;41.766;26.204;2023-05-19T08:35:24;10.60;;;6.70;;
10007;SDS011;5043;41.766;26.204;2023-05-19T08:37:49;7.88;;;6.78;;
10007;SDS011;5043;41.766;26.204;2023-05-19T08:40:15;9.63;;;6.43;;
10007;SDS011;5043;41.766;26.204;2023-05-19T08:42:43;8.18;;;6.35;;
10007;SDS011;5043;41.766;26.204;2023-05-19T08:45:09;12.55;;;6.40;;
10007;SDS011;5043;41.766;26.204;2023-05-19T08:47:35;9.18;;;6.45;;
10007;SDS011;5043;41.766;26.204;2023-05-19T08:50:04;7.80;;;6.28;;
10007;SDS011;5043;41.766;26.204;2023-05-19T08:57:31;7.32;;;6.63;;
10007;SDS011;5043;41.766;26.204;2023-05-19T08:59:57;11.68;;;6.38;;
10007;SDS011;5043;41.766;26.204;2023-05-19T09:02:23;9.20;;;6.93;;
10007;SDS011;5043;41.766;26.204;2023-05-19T09:04:49;8.40;;;6.78;;
10007;SDS011;5043;41.766;26.204;2023-05-19T09:07:16;9.07;;;6.82;;
10007;SDS011;5043;41.766;26.204;2023-05-19T09:09:42;7.72;;;7.03;;
10007;SDS011;5043;41.766;26.204;2023-05-19T09:12:09;8.77;;;6.50;;
10007;SDS011;5043;41.766;26.204;2023-05-19T09:14:35;12.68;;;7.68;;
10007;SDS011;5043;41.766;26.204;2023-05-19T09:17:02;8.02;;;6.82;;
10007;SDS011;5043;41.766;26.204;2023-05-19T09:19:28;9.70;;;7.97;;
10007;SDS011;5043;41.766;26.204;2023-05-19T09:21:57;12.20;;;8.20;;
10007;SDS011;5043;41.766;26.204;2023-05-19T09:24:27;15.43;;;7.50;;
10007;SDS011;5043;41.766;26.204;2023-05-19T09:26:55;14.25;;;9.05;;
10007;SDS011;5043;41.766;26.204;2023-05-19T09:29:21;14.63;;;7.82;;
10007;SDS011;5043;41.766;26.204;2023-05-19T09:31:54;8.50;;;7.38;;
10007;SDS011;5043;41.766;26.204;2023-05-19T09:34:24;11.80;;;7.07;;
10007;SDS011;5043;41.766;26.204;2023-05-19T09:36:51;8.10;;;6.80;;
10007;SDS011;5043;41.766;26.204;2023-05-19T09:39:18;17.85;;;7.45;;
10007;SDS011;5043;41.766;26.204;2023-05-19T09:41:45;11.57;;;7.47;;
10007;SDS011;5043;41.766;26.204;2023-05-19T09:46:51;15.00;;;7.65;;
10007;SDS011;5043;41.766;26.204;2023-05-19T09:49:21;12.35;;;6.90;;
10007;SDS011;5043;41.766;26.204;2023-05-19T09:51:55;16.17;;;7.13;;
10007;SDS011;5043;41.766;26.204;2023-05-19T09:54:21;8.63;;;5.75;;
10007;SDS011;5043;41.766;26.204;2023-05-19T09:57:02;8.48;;;7.18;;
10007;SDS011;5043;41.766;26.204;2023-05-19T09:59:30;9.15;;;7.60;;
10007;SDS011;5043;41.766;26.204;2023-05-19T10:01:56;10.25;;;7.40;;
10007;SDS011;5043;41.766;26.204;2023-05-19T10:04:23;14.82;;;8.05;;
10007;SDS011;5043;41.766;26.204;2023-05-19T10:06:55;7.95;;;6.53;;
10007;SDS011;5043;41.766;26.204;2023-05-19T10:09:25;13.98;;;6.70;;
10007;SDS011;5043;41.766;26.204;2023-05-19T10:11:56;10.40;;;6.40;;
10007;SDS011;5043;41.766;26.204;2023-05-19T10:14:23;8.07;;;7.07;;
10007;SDS011;5043;41.766;26.204;2023-05-19T10:16:50;10.60;;;7.18;;
10007;SDS011;5043;41.766;26.204;2023-05-19T10:19:19;13.27;;;6.28;;
10007;SDS011;5043;41.766;26.204;2023-05-19T10:21:45;8.75;;;7.15;;
10007;SDS011;5043;41.766;26.204;2023-05-19T10:24:12;7.78;;;6.30;;
10007;SDS011;5043;41.766;26.204;2023-05-19T10:26:38;11.55;;;7.18;;
10007;SDS011;5043;41.766;26.204;2023-05-19T10:29:08;11.63;;;7.32;;
10007;SDS011;5043;41.766;26.204;2023-05-19T10:31:35;13.73;;;6.97;;
10007;SDS011;5043;41.766;26.204;2023-05-19T10:34:13;12.18;;;6.82;;
10007;SDS011;5043;41.766;26.204;2023-05-19T10:39:36;9.80;;;8.15;;
10007;SDS011;5043;41.766;26.204;2023-05-19T10:42:09;8.05;;;6.90;;
10007;SDS011;5043;41.766;26.204;2023-05-19T10:45:08;9.23;;;6.28;;
10007;SDS011;5043;41.766;26.204;2023-05-19T10:47:39;8.57;;;6.22;;
10007;SDS011;5043;41.766;26.204;2023-05-19T10:50:06;9.25;;;6.72;;
10007;SDS011;5043;41.766;26.204;2023-05-19T10:52:32;7.15;;;6.32;;
10007;SDS011;5043;41.766;26.204;2023-05-19T10:55:02;7.70;;;6.25;;
10007;SDS011;5043;41.766;26.204;2023-05-19T10:57:29;9.30;;;6.40;;
10007;SDS011;5043;41.766;26.204;2023-05-19T10:59:58;9.38;;;5.97;;
10007;SDS011;5043;41.766;26.204;2023-05-19T11:05:19;12.40;;;7.13;;
10007;SDS011;5043;41.766;26.204;2023-05-19T11:07:55;8.60;;;6.55;;
10007;SDS011;5043;41.766;26.204;2023-05-19T11:10:30;8.25;;;6.80;;
10007;SDS011;5043;41.766;26.204;2023-05-19T11:12:56;7.45;;;6.13;;
10007;SDS011;5043;41.766;26.204;2023-05-19T11:15:25;7.00;;;6.30;;
10007;SDS011;5043;41.766;26.204;2023-05-19T11:17:52;7.28;;;6.47;;
10007;SDS011;5043;41.766;26.204;2023-05-19T11:20:27;8.23;;;6.57;;
10007;SDS011;5043;41.766;26.204;2023-05-19T11:23:05;10.48;;;6.85;;
10007;SDS011;5043;41.766;26.204;2023-05-19T11:25:50;7.30;;;6.53;;
10007;SDS011;5043;41.766;26.204;2023-05-19T11:28:18;8.43;;;6.57;;
10007;SDS011;5043;41.766;26.204;2023-05-19T11:30:49;11.45;;;6.40;;
10007;SDS011;5043;41.766;26.204;2023-05-19T11:33:18;10.52;;;7.15;;
10007;SDS011;5043;41.766;26.204;2023-05-19T11:35:45;7.50;;;6.07;;
10007;SDS011;5043;41.766;26.204;2023-05-19T11:38:11;11.00;;;6.57;;
10007;SDS011;5043;41.766;26.204;2023-05-19T11:40:38;11.63;;;6.60;;
10007;SDS011;5043;41.766;26.204;2023-05-19T11:43:06;7.93;;;6.30;;
10007;SDS011;5043;41.766;26.204;2023-05-19T11:45:31;10.85;;;7.00;;
10007;SDS011;5043;41.766;26.204;2023-05-19T11:47:58;9.43;;;6.95;;
10007;SDS011;5043;41.766;26.204;2023-05-19T11:50:24;7.57;;;6.68;;
10007;SDS011;5043;41.766;26.204;2023-05-19T11:52:50;12.73;;;6.95;;
10007;SDS011;5043;41.766;26.204;2023-05-19T11:55:16;10.23;;;6.45;;
10007;SDS011;5043;41.766;26.204;2023-05-19T12:00:23;8.10;;;6.88;;
10007;SDS011;5043;41.766;26.204;2023-05-19T12:02:52;9.23;;;6.55;;
10007;SDS011;5043;41.766;26.204;2023-05-19T12:05:18;12.38;;;6.97;;
10007;SDS011;5043;41.766;26.204;2023-05-19T12:07:45;11.85;;;6.13;;
10007;SDS011;5043;41.766;26.204;2023-05-19T12:10:11;7.13;;;6.43;;
10007;SDS011;5043;41.766;26.204;2023-05-19T12:12:36;9.63;;;6.30;;
10007;SDS011;5043;41.766;26.204;2023-05-19T12:15:05;6.50;;;5.90;;
10007;SDS011;5043;41.766;26.204;2023-05-19T12:17:32;6.93;;;6.18;;
10007;SDS011;5043;41.766;26.204;2023-05-19T12:19:57;9.95;;;5.50;;
10007;SDS011;5043;41.766;26.204;2023-05-19T12:22:23;12.82;;;6.03;;
10007;SDS011;5043;41.766;26.204;2023-05-19T12:24:50;12.40;;;5.28;;
10007;SDS011;5043;41.766;26.204;2023-05-19T12:27:16;9.77;;;6.13;;
10007;SDS011;5043;41.766;26.204;2023-05-19T12:29:48;9.60;;;6.50;;
10007;SDS011;5043;41.766;26.204;2023-05-19T12:32:21;11.60;;;6.53;;
10007;SDS011;5043;41.766;26.204;2023-05-19T12:34:52;11.57;;;6.05;;
10007;SDS011;5043;41.766;26.204;2023-05-19T12:37:18;12.68;;;6.15;;
10007;SDS011;5043;41.766;26.204;2023-05-19T12:39:44;9.55;;;6.78;;
10007;SDS011;5043;41.766;26.204;2023-05-19T12:42:10;10.50;;;7.80;;
10007;SDS011;5043;41.766;26.204;2023-05-19T12:44:37;15.13;;;7.45;;
10007;SDS011;5043;41.766;26.204;2023-05-19T12:47:11;11.85;;;8.00;;
10007;SDS011;5043;41.766;26.204;2023-05-19T12:49:52;11.10;;;7.80;;
10007;SDS011;5043;41.766;26.204;2023-05-19T12:52:26;10.57;;;8.15;;
10007;SDS011;5043;41.766;26.204;2023-05-19T12:55:00;9.70;;;7.32;;
10007;SDS011;5043;41.766;26.204;2023-05-19T12:57:28;10.07;;;7.57;;
10007;SDS011;5043;41.766;26.204;2023-05-19T13:00:06;12.52;;;7.18;;
10007;SDS011;5043;41.766;26.204;2023-05-19T13:05:28;10.82;;;7.22;;
10007;SDS011;5043;41.766;26.204;2023-05-19T13:08:05;9.75;;;7.07;;
10007;SDS011;5043;41.766;26.204;2023-05-19T13:10:32;14.20;;;7.10;;
10007;SDS011;5043;41.766;26.204;2023-05-19T13:12:58;9.75;;;6.95;;
10007;SDS011;5043;41.766;26.204;2023-05-19T13:15:25;7.65;;;6.88;;
10007;SDS011;5043;41.766;26.204;2023-05-19T13:17:52;8.40;;;7.13;;
10007;SDS011;5043;41.766;26.204;2023-05-19T13:20:20;7.53;;;6.72;;
10007;SDS011;5043;41.766;26.204;2023-05-19T13:22:46;7.05;;;6.35;;
10007;SDS011;5043;41.766;26.204;2023-05-19T13:25:12;12.90;;;7.03;;
10007;SDS011;5043;41.766;26.204;2023-05-19T13:27:37;13.95;;;7.78;;
10007;SDS011;5043;41.766;26.204;2023-05-19T13:30:03;8.88;;;6.78;;
10007;SDS011;5043;41.766;26.204;2023-05-19T13:32:29;8.07;;;6.72;;
10007;SDS011;5043;41.766;26.204;2023-05-19T13:34:55;12.15;;;7.10;;
10007;SDS011;5043;41.766;26.204;2023-05-19T13:37:21;8.68;;;6.30;;
10007;SDS011;5043;41.766;26.204;2023-05-19T13:39:48;6.75;;;6.05;;
10007;SDS011;5043;41.766;26.204;2023-05-19T13:42:14;10.95;;;7.15;;
10007;SDS011;5043;41.766;26.204;2023-05-19T13:44:41;7.90;;;6.55;;
10007;SDS011;5043;41.766;26.204;2023-05-19T13:47:07;14.02;;;6.32;;
10007;SDS011;5043;41.766;26.204;2023-05-19T13:49:32;7.50;;;6.78;;
10007;SDS011;5043;41.766;26.204;2023-05-19T13:51:58;10.02;;;7.15;;
10007;SDS011;5043;41.766;26.204;2023-05-19T13:54:24;8.10;;;6.93;;
10007;SDS011;5043;41.766;26.204;2023-05-19T13:56:50;7.80;;;6.95;;
10007;SDS011;5043;41.766;26.204;2023-05-19T13:59:16;14.68;;;7.93;;
10007;SDS011;5043;41.766;26.204;2023-05-19T14:01:42;12.73;;;7.15;;
10007;SDS011;5043;41.766;26.204;2023-05-19T14:04:08;8.27;;;7.10;;
10007;SDS011;5043;41.766;26.204;2023-05-19T14:06:34;16.25;;;7.18;;
10007;SDS011;5043;41.766;26.204;2023-05-19T14:09:02;8.35;;;7.32;;
10007;SDS011;5043;41.766;26.204;2023-05-19T14:11:28;18.90;;;7.60;;
10007;SDS011;5043;41.766;26.204;2023-05-19T14:13:54;12.07;;;7.22;;
10007;SDS011;5043;41.766;26.204;2023-05-19T14:16:20;8.77;;;7.75;;
10007;SDS011;5043;41.766;26.204;2023-05-19T14:18:47;11.55;;;10.30;;
10007;SDS011;5043;41.766;26.204;2023-05-19T14:21:13;10.10;;;7.32;;
10007;SDS011;5043;41.766;26.204;2023-05-19T14:23:40;11.23;;;7.75;;
10007;SDS011;5043;41.766;26.204;2023-05-19T14:26:05;9.75;;;6.85;;
10007;SDS011;5043;41.766;26.204;2023-05-19T14:28:31;8.18;;;7.38;;
10007;SDS011;5043;41.766;26.204;2023-05-19T14:30:57;10.15;;;7.22;;
10007;SDS011;5043;41.766;26.204;2023-05-19T14:33:22;7.72;;;6.93;;
10007;SDS011;5043;41.766;26.204;2023-05-19T14:35:48;11.23;;;7.90;;
10007;SDS011;5043;41.766;26.204;2023-05-19T14:38:13;9.57;;;7.50;;
10007;SDS011;5043;41.766;26.204;2023-05-19T14:40:39;8.85;;;7.95;;
10007;SDS011;5043;41.766;26.204;2023-05-19T14:43:05;10.75;;;7.63;;
10007;SDS011;5043;41.766;26.204;2023-05-19T14:45:34;9.45;;;6.93;;
10007;SDS011;5043;41.766;26.204;2023-05-19T14:47:59;7.53;;;6.60;;
10007;SDS011;5043;41.766;26.204;2023-05-19T14:50:26;9.13;;;7.40;;
10007;SDS011;5043;41.766;26.204;2023-05-19T14:52:52;10.85;;;8.35;;
10007;SDS011;5043;41.766;26.204;2023-05-19T14:55:18;7.70;;;6.88;;
10007;SDS011;5043;41.766;26.204;2023-05-19T14:57:44;10.45;;;7.03;;
10007;SDS011;5043;41.766;26.204;2023-05-19T15:00:10;11.35;;;8.25;;
10007;SDS011;5043;41.766;26.204;2023-05-19T15:02:37;7.95;;;7.15;;
10007;SDS011;5043;41.766;26.204;2023-05-19T15:05:02;9.35;;;8.40;;
10007;SDS011;5043;41.766;26.204;2023-05-19T15:07:28;10.75;;;7.82;;
10007;SDS011;5043;41.766;26.204;2023-05-19T15:09:53;8.95;;;7.90;;
10007;SDS011;5043;41.766;26.204;2023-05-19T15:12:19;10.63;;;7.35;;
10007;SDS011;5043;41.766;26.204;2023-05-19T15:14:45;7.65;;;6.85;;
10007;SDS011;5043;41.766;26.204;2023-05-19T15:17:10;13.10;;;7.65;;
10007;SDS011;5043;41.766;26.204;2023-05-19T15:19:36;11.27;;;7.32;;
10007;SDS011;5043;41.766;26.204;2023-05-19T15:22:01;10.52;;;7.07;;
10007;SDS011;5043;41.766;26.204;2023-05-19T15:24:27;8.43;;;7.50;;